createdAt,value
2018-07-24T00:01:07.031Z,15.03
2018-07-24T00:03:34.125Z,17.83
2018-07-24T00:06:01.269Z,16.30
2018-07-24T00:08:28.308Z,15.97
2018-07-24T00:10:55.539Z,17.33
2018-07-24T00:13:22.643Z,17.30
2018-07-24T00:15:49.710Z,18.13
2018-07-24T00:18:19.770Z,17.47
2018-07-24T00:20:46.837Z,17.80
2018-07-24T00:23:16.890Z,15.33
2018-07-24T00:25:46.920Z,19.23
2018-07-24T00:28:15.041Z,16.80
2018-07-24T00:30:44.070Z,15.50
2018-07-24T00:33:11.092Z,18.03
2018-07-24T00:35:43.252Z,21.07
2018-07-24T00:38:13.436Z,16.43
2018-07-24T00:40:41.590Z,19.67
2018-07-24T00:43:08.982Z,17.30
2018-07-24T00:45:42.405Z,17.60
2018-07-24T00:48:23.880Z,15.70
2018-07-24T00:50:55.339Z,18.50
2018-07-24T00:53:25.414Z,20.00
2018-07-24T00:55:58.637Z,20.00
2018-07-24T00:58:32.072Z,19.30
2018-07-24T01:00:59.088Z,20.10
2018-07-24T01:03:32.381Z,19.30
2018-07-24T01:06:02.484Z,18.20
2018-07-24T01:08:30.750Z,15.57
2018-07-24T01:11:00.840Z,17.20
2018-07-24T01:13:28.513Z,17.70
2018-07-24T01:15:55.552Z,19.60
2018-07-24T01:18:25.623Z,18.97
2018-07-24T01:20:53.757Z,17.53
2018-07-24T01:23:20.819Z,19.87
2018-07-24T01:25:47.915Z,19.90
2018-07-24T01:28:15.082Z,20.93
2018-07-24T01:30:43.127Z,17.90
2018-07-24T01:33:11.080Z,20.30
2018-07-24T01:35:38.200Z,22.70
2018-07-24T01:38:06.012Z,20.83
2018-07-24T01:40:33.123Z,18.60
2018-07-24T01:43:00.244Z,19.45
2018-07-24T01:45:27.245Z,16.53
2018-07-24T01:47:54.820Z,16.87
2018-07-24T01:50:21.980Z,17.32
2018-07-24T01:52:49.071Z,16.60
2018-07-24T01:55:21.867Z,16.10
2018-07-24T01:57:49.626Z,16.63
2018-07-24T02:00:17.560Z,18.97
2018-07-24T02:02:48.219Z,17.57
2018-07-24T02:05:18.344Z,17.30
2018-07-24T02:07:45.357Z,18.10
2018-07-24T02:10:12.372Z,18.00
2018-07-24T02:12:39.486Z,20.03
2018-07-24T02:15:08.659Z,20.10
2018-07-24T02:17:40.618Z,18.43
2018-07-24T02:20:08.541Z,18.80
2018-07-24T02:22:35.650Z,17.07
2018-07-24T02:25:06.000Z,18.33
2018-07-24T02:27:33.774Z,18.23
2018-07-24T02:30:00.852Z,19.73
2018-07-24T02:32:28.988Z,19.00
2018-07-24T02:34:57.643Z,22.60
2018-07-24T02:37:25.159Z,24.67
2018-07-24T02:39:54.300Z,22.77
2018-07-24T02:42:27.699Z,22.60
2018-07-24T02:44:55.133Z,21.20
2018-07-24T02:47:24.204Z,21.13
2018-07-24T02:49:54.392Z,18.73
2018-07-24T02:52:24.440Z,19.37
2018-07-24T02:54:51.613Z,20.63
2018-07-24T02:57:23.424Z,22.93
2018-07-24T02:59:50.466Z,21.40
2018-07-24T03:02:20.510Z,19.83
2018-07-24T03:04:52.598Z,19.57
2018-07-24T03:07:20.566Z,18.60
2018-07-24T03:09:47.616Z,17.03
2018-07-24T03:12:14.690Z,22.22
2018-07-24T03:14:41.776Z,20.23
2018-07-24T03:17:12.739Z,20.80
2018-07-24T03:19:39.833Z,19.50
2018-07-24T03:22:11.098Z,20.77
2018-07-24T03:24:43.136Z,18.73
2018-07-24T03:27:12.337Z,19.73
2018-07-24T03:29:40.101Z,17.85
2018-07-24T03:32:07.145Z,22.10
2018-07-24T03:34:34.221Z,21.33
2018-07-24T03:37:10.733Z,22.17
2018-07-24T03:39:38.634Z,18.90
2018-07-24T03:42:06.711Z,22.03
2018-07-24T03:44:34.635Z,22.40
2018-07-24T03:47:05.470Z,22.70
2018-07-24T03:49:35.142Z,22.17
2018-07-24T03:52:03.121Z,24.60
2018-07-24T03:54:30.224Z,25.17
2018-07-24T03:56:57.358Z,25.40
2018-07-24T03:59:25.139Z,25.85
2018-07-24T04:01:53.121Z,21.77
2018-07-24T04:04:22.156Z,23.98
2018-07-24T04:06:49.274Z,23.53
2018-07-24T04:09:20.188Z,20.60
2018-07-24T04:11:51.475Z,22.73
2018-07-24T04:14:24.596Z,18.20
2018-07-24T04:16:51.651Z,19.53
2018-07-24T04:19:18.666Z,17.40
2018-07-24T04:21:46.727Z,18.60
2018-07-24T04:24:18.709Z,16.97
2018-07-24T04:26:47.743Z,17.80
2018-07-24T04:29:18.924Z,16.77
2018-07-24T04:31:45.969Z,15.50
2018-07-24T04:34:14.064Z,16.13
2018-07-24T04:36:42.183Z,14.60
2018-07-24T04:39:12.353Z,13.80
2018-07-24T04:41:41.164Z,13.47
2018-07-24T04:44:08.325Z,19.80
2018-07-24T04:46:38.861Z,23.10
2018-07-24T04:49:06.656Z,17.57
2018-07-24T04:51:35.792Z,17.63
2018-07-24T04:54:05.896Z,13.00
2018-07-24T04:56:32.993Z,13.97
2018-07-24T04:59:00.175Z,13.72
2018-07-24T05:01:27.295Z,14.50
2018-07-24T05:03:54.519Z,24.83
2018-07-24T05:06:22.612Z,15.93
2018-07-24T05:08:50.673Z,16.87
2018-07-24T05:11:17.696Z,16.87
2018-07-24T05:13:46.655Z,17.33
2018-07-24T05:16:14.044Z,19.40
2018-07-24T05:18:41.670Z,23.77
2018-07-24T05:21:11.952Z,22.87
2018-07-24T05:23:42.051Z,22.50
2018-07-24T05:26:12.103Z,21.10
2018-07-24T05:28:39.202Z,21.30
2018-07-24T05:31:06.258Z,21.40
2018-07-24T05:33:33.325Z,22.30
2018-07-24T05:36:10.172Z,20.93
2018-07-24T05:38:39.300Z,23.15
2018-07-24T05:41:07.265Z,24.60
2018-07-24T05:43:37.402Z,24.33
2018-07-24T05:46:06.131Z,24.33
2018-07-24T05:48:33.210Z,25.63
2018-07-24T05:51:00.323Z,28.00
2018-07-24T05:53:33.675Z,28.23
2018-07-24T05:56:01.758Z,27.47
2018-07-24T05:58:29.755Z,30.57
2018-07-24T06:00:57.843Z,30.60
2018-07-24T06:03:25.009Z,30.65
2018-07-24T06:05:55.289Z,30.20
2018-07-24T06:08:26.896Z,29.00
2018-07-24T06:10:53.981Z,29.80
2018-07-24T06:13:21.089Z,31.67
2018-07-24T06:15:57.732Z,31.23
2018-07-24T06:18:25.180Z,31.43
2018-07-24T06:20:55.262Z,32.80
2018-07-24T06:23:26.511Z,31.77
2018-07-24T06:25:59.977Z,28.10
2018-07-24T06:28:33.364Z,27.33
2018-07-24T06:31:04.799Z,24.60
2018-07-24T06:33:35.842Z,24.13
2018-07-24T06:36:02.982Z,25.50
2018-07-24T06:38:30.065Z,24.83
2018-07-24T06:41:09.195Z,23.33
2018-07-24T06:43:38.294Z,23.43
2018-07-24T06:46:15.093Z,24.50
2018-07-24T06:48:51.900Z,23.20
2018-07-24T06:51:18.957Z,27.47
2018-07-24T06:53:46.084Z,23.10
2018-07-24T06:56:14.231Z,22.30
2018-07-24T06:58:42.295Z,22.60
2018-07-24T07:01:09.349Z,21.87
2018-07-24T07:03:36.456Z,21.87
2018-07-24T07:06:03.620Z,20.33
2018-07-24T07:08:30.676Z,20.80
2018-07-24T07:10:57.783Z,20.10
2018-07-24T07:13:24.902Z,21.10
2018-07-24T07:15:51.921Z,20.73
2018-07-24T07:18:18.960Z,19.07
2018-07-24T07:20:50.607Z,19.13
2018-07-24T07:23:20.714Z,20.12
2018-07-24T07:25:50.808Z,19.23
2018-07-24T07:28:17.970Z,20.07
2018-07-24T07:30:45.079Z,21.97
2018-07-24T07:33:13.237Z,18.80
2018-07-24T07:35:42.265Z,17.20
2018-07-24T07:38:10.247Z,16.43
2018-07-24T07:40:40.863Z,17.90
2018-07-24T07:43:08.745Z,17.60
2018-07-24T07:45:35.819Z,18.17
2018-07-24T07:48:02.886Z,17.83
2018-07-24T07:50:31.954Z,18.45
2018-07-24T07:53:03.054Z,21.67
2018-07-24T07:55:30.291Z,19.75
2018-07-24T07:58:00.933Z,16.40
2018-07-24T08:00:32.924Z,17.60
2018-07-24T08:03:00.022Z,14.73
2018-07-24T08:05:27.154Z,16.60
2018-07-24T08:07:54.287Z,14.77
2018-07-24T08:10:23.337Z,15.23
2018-07-24T08:12:50.404Z,15.18
2018-07-24T08:15:18.521Z,16.93
2018-07-24T08:17:47.349Z,16.70
2018-07-24T08:20:15.330Z,12.93
2018-07-24T08:22:46.251Z,13.40
2018-07-24T08:25:14.318Z,16.13
2018-07-24T08:27:41.405Z,16.50
2018-07-24T08:30:12.072Z,14.60
2018-07-24T08:32:40.815Z,16.23
2018-07-24T08:35:11.992Z,20.20
2018-07-24T08:37:41.939Z,11.73
2018-07-24T08:40:10.991Z,14.13
2018-07-24T08:42:38.269Z,12.40
2018-07-24T08:45:05.804Z,16.20
2018-07-24T08:47:32.918Z,13.63
2018-07-24T08:49:59.989Z,14.13
2018-07-24T08:52:27.127Z,12.43
2018-07-24T08:54:57.426Z,14.90
2018-07-24T08:57:24.292Z,13.67
2018-07-24T08:59:52.391Z,12.35
2018-07-24T09:02:20.363Z,10.13
2018-07-24T09:04:47.415Z,12.27
2018-07-24T09:07:14.517Z,12.00
2018-07-24T09:09:41.609Z,12.20
2018-07-24T09:12:08.758Z,10.67
2018-07-24T09:14:35.987Z,21.63
2018-07-24T09:17:06.020Z,11.10
2018-07-24T09:19:33.196Z,13.03
2018-07-24T09:22:00.373Z,14.00
2018-07-24T09:24:28.317Z,12.60
2018-07-24T09:26:55.454Z,13.13
2018-07-24T09:29:23.386Z,14.30
2018-07-24T09:31:50.474Z,12.93
2018-07-24T09:34:19.332Z,14.70
2018-07-24T09:36:46.486Z,12.90
2018-07-24T09:39:13.628Z,13.20
2018-07-24T09:41:43.917Z,14.00
2018-07-24T09:44:11.881Z,13.33
2018-07-24T09:46:38.943Z,11.70
2018-07-24T09:49:06.010Z,13.70
2018-07-24T09:51:36.284Z,13.00
2018-07-24T09:54:04.502Z,12.30
2018-07-24T09:56:32.226Z,11.80
2018-07-24T09:59:02.329Z,14.90
2018-07-24T10:01:33.254Z,14.45
2018-07-24T10:04:00.884Z,12.10
2018-07-24T10:06:33.285Z,10.77
2018-07-24T10:09:05.332Z,11.55
2018-07-24T10:11:35.375Z,14.33
2018-07-24T10:14:02.530Z,10.27
2018-07-24T10:16:30.006Z,9.33
2018-07-24T10:19:01.248Z,11.67
2018-07-24T10:21:28.909Z,10.73
2018-07-24T10:23:58.071Z,9.37
2018-07-24T10:26:25.964Z,8.70
2018-07-24T10:28:55.241Z,10.33
2018-07-24T10:31:22.413Z,7.97
2018-07-24T10:33:49.491Z,10.28
2018-07-24T10:36:16.564Z,8.90
2018-07-24T10:38:43.638Z,10.50
2018-07-24T10:41:10.755Z,8.10
2018-07-24T10:43:37.893Z,7.43
2018-07-24T10:46:05.091Z,8.90
2018-07-24T10:48:34.895Z,9.95
2018-07-24T10:51:02.889Z,10.47
2018-07-24T10:53:33.435Z,8.60
2018-07-24T10:56:01.567Z,9.50
2018-07-24T10:58:28.660Z,9.07
2018-07-24T11:00:55.916Z,9.65
2018-07-24T11:03:23.151Z,11.00
2018-07-24T11:05:51.109Z,9.50
2018-07-24T11:08:25.295Z,10.00
2018-07-24T11:10:53.461Z,12.10
2018-07-24T11:13:20.455Z,11.70
2018-07-24T11:15:47.537Z,9.17
2018-07-24T11:18:14.645Z,12.50
2018-07-24T11:20:42.509Z,10.47
2018-07-24T11:23:10.816Z,10.03
2018-07-24T11:25:40.833Z,9.20
2018-07-24T11:28:07.929Z,15.77
2018-07-24T11:30:36.976Z,10.33
2018-07-24T11:33:04.146Z,6.73
2018-07-24T11:35:31.389Z,10.00
2018-07-24T11:38:00.487Z,7.40
2018-07-24T11:40:27.604Z,7.42
2018-07-24T11:42:54.781Z,7.00
2018-07-24T11:45:23.949Z,8.43
2018-07-24T11:47:51.923Z,7.20
2018-07-24T11:50:22.137Z,7.03
2018-07-24T11:52:51.052Z,6.27
2018-07-24T11:55:21.109Z,6.60
2018-07-24T11:57:51.264Z,7.30
2018-07-24T12:00:18.321Z,7.10
2018-07-24T12:02:45.397Z,11.50
2018-07-24T12:05:14.647Z,5.70
2018-07-24T12:07:41.749Z,7.97
2018-07-24T12:10:08.862Z,8.35
2018-07-24T12:12:37.141Z,5.97
2018-07-24T12:15:04.869Z,6.33
2018-07-24T12:17:32.452Z,6.40
2018-07-24T12:19:59.631Z,6.17
2018-07-24T12:22:27.751Z,8.90
2018-07-24T12:25:06.541Z,7.33
2018-07-24T12:27:39.967Z,6.73
2018-07-24T12:30:08.108Z,6.17
2018-07-24T12:32:35.971Z,9.57
2018-07-24T12:35:07.609Z,6.87
2018-07-24T12:37:34.789Z,8.00
2018-07-24T12:40:01.966Z,6.28
2018-07-24T12:42:29.106Z,5.90
2018-07-24T12:45:00.942Z,6.27
2018-07-24T12:47:29.005Z,6.03
2018-07-24T12:49:59.915Z,5.20
2018-07-24T12:52:28.985Z,6.72
2018-07-24T12:54:59.028Z,7.17
2018-07-24T12:57:26.301Z,6.00
2018-07-24T12:59:54.110Z,6.83
2018-07-24T13:02:21.354Z,5.53
2018-07-24T13:04:48.528Z,6.70
2018-07-24T13:07:15.713Z,6.05
2018-07-24T13:09:42.939Z,12.93
2018-07-24T13:12:11.122Z,6.40
2018-07-24T13:14:38.981Z,6.00
2018-07-24T13:17:06.203Z,7.63
2018-07-24T13:19:33.517Z,5.67
2018-07-24T13:22:00.748Z,7.12
2018-07-24T13:24:27.845Z,6.05
2018-07-24T13:26:59.284Z,5.77
2018-07-24T13:29:27.063Z,5.20
2018-07-24T13:31:54.395Z,5.87
2018-07-24T13:34:21.297Z,5.37
2018-07-24T13:36:48.479Z,6.00
2018-07-24T13:39:15.593Z,5.53
2018-07-24T13:41:42.744Z,5.77
2018-07-24T13:44:10.034Z,6.70
2018-07-24T13:46:40.158Z,5.60
2018-07-24T13:49:09.079Z,6.33
2018-07-24T13:51:37.107Z,5.43
2018-07-24T13:54:04.240Z,5.20
2018-07-24T13:56:31.316Z,6.80
2018-07-24T13:58:59.450Z,5.23
2018-07-24T14:01:26.553Z,5.77
2018-07-24T14:03:55.637Z,6.37
2018-07-24T14:06:24.507Z,5.63
2018-07-24T14:08:51.702Z,5.90
2018-07-24T14:11:18.847Z,5.00
2018-07-24T14:13:45.933Z,8.20
2018-07-24T14:16:13.096Z,5.45
2018-07-24T14:18:40.189Z,5.80
2018-07-24T14:21:07.550Z,5.75
2018-07-24T14:23:34.631Z,5.65
2018-07-24T14:26:02.014Z,5.50
2018-07-24T14:28:29.071Z,5.60
2018-07-24T14:30:56.193Z,6.63
2018-07-24T14:33:23.371Z,5.23
2018-07-24T14:35:50.594Z,5.63
2018-07-24T14:38:17.783Z,5.63
2018-07-24T14:40:44.908Z,5.92
2018-07-24T14:43:13.128Z,5.58
2018-07-24T14:45:41.081Z,5.70
2018-07-24T14:48:08.137Z,5.37
2018-07-24T14:50:35.996Z,5.07
2018-07-24T14:53:03.104Z,5.60
2018-07-24T14:55:30.194Z,5.40
2018-07-24T14:57:57.284Z,5.80
2018-07-24T15:00:24.681Z,5.87
2018-07-24T15:02:52.514Z,4.95
2018-07-24T15:05:19.592Z,5.07
2018-07-24T15:07:46.668Z,5.47
2018-07-24T15:10:13.877Z,5.37
2018-07-24T15:12:44.155Z,5.50
2018-07-24T15:15:14.636Z,5.33
2018-07-24T15:17:43.679Z,5.33
2018-07-24T15:20:10.860Z,4.77
2018-07-24T15:22:39.050Z,6.83
2018-07-24T15:25:06.103Z,6.40
2018-07-24T15:27:33.212Z,5.63
2018-07-24T15:30:00.285Z,7.50
2018-07-24T15:32:29.219Z,5.93
2018-07-24T15:34:56.405Z,5.13
2018-07-24T15:37:23.416Z,7.83
2018-07-24T15:39:52.266Z,5.03
2018-07-24T15:42:19.544Z,5.80
2018-07-24T15:44:46.741Z,5.67
2018-07-24T15:47:13.976Z,7.03
2018-07-24T15:49:42.154Z,5.33
2018-07-24T15:52:09.397Z,5.10
2018-07-24T15:54:36.943Z,5.27
2018-07-24T15:57:04.024Z,5.33
2018-07-24T15:59:34.280Z,5.63
2018-07-24T16:02:01.449Z,4.50
2018-07-24T16:04:28.667Z,5.00
2018-07-24T16:06:55.833Z,4.20
2018-07-24T16:09:24.782Z,5.00
2018-07-24T16:11:51.998Z,5.10
2018-07-24T16:14:20.183Z,6.10
2018-07-24T16:16:47.229Z,5.40
2018-07-24T16:19:14.351Z,4.37
2018-07-24T16:21:41.425Z,5.50
2018-07-24T16:24:08.685Z,6.80
2018-07-24T16:26:35.841Z,4.50
2018-07-24T16:29:03.234Z,6.23
2018-07-24T16:31:30.343Z,5.37
2018-07-24T16:33:58.655Z,4.67
2018-07-24T16:36:25.980Z,5.97
2018-07-24T16:38:53.103Z,4.60
2018-07-24T16:41:21.373Z,4.63
2018-07-24T16:43:48.461Z,5.28
2018-07-24T16:46:15.755Z,4.53
2018-07-24T16:48:42.970Z,4.20
2018-07-24T16:51:10.071Z,5.57
2018-07-24T16:53:37.274Z,4.58
2018-07-24T16:56:04.453Z,4.40
2018-07-24T16:58:31.698Z,4.73
2018-07-24T17:00:58.901Z,3.83
2018-07-24T17:03:26.153Z,4.20
2018-07-24T17:05:53.451Z,6.13
2018-07-24T17:08:21.295Z,5.00
2018-07-24T17:10:49.306Z,4.10
2018-07-24T17:13:16.405Z,5.80
2018-07-24T17:15:43.522Z,4.60
2018-07-24T17:18:10.695Z,4.67
2018-07-24T17:20:37.836Z,4.30
2018-07-24T17:23:12.672Z,4.47
2018-07-24T17:25:42.853Z,6.23
2018-07-24T17:28:10.014Z,4.17
2018-07-24T17:30:37.164Z,5.43
2018-07-24T17:33:04.380Z,4.30
2018-07-24T17:35:31.665Z,4.50
2018-07-24T17:37:58.732Z,5.57
2018-07-24T17:40:27.809Z,4.57
2018-07-24T17:42:55.318Z,4.85
2018-07-24T17:45:22.549Z,4.15
2018-07-24T17:47:49.682Z,5.07
2018-07-24T17:50:16.969Z,4.67
2018-07-24T17:52:45.889Z,4.43
2018-07-24T17:55:13.138Z,4.67
2018-07-24T17:57:42.287Z,4.23
2018-07-24T18:00:12.375Z,4.07
2018-07-24T18:02:39.561Z,6.53
2018-07-24T18:05:06.652Z,4.47
2018-07-24T18:07:40.925Z,7.03
2018-07-24T18:10:08.101Z,5.03
2018-07-24T18:12:38.265Z,4.40
2018-07-24T18:15:05.432Z,3.93
2018-07-24T18:17:32.559Z,4.77
2018-07-24T18:20:00.362Z,6.03
2018-07-24T18:22:28.338Z,8.73
2018-07-24T18:24:55.518Z,4.70
2018-07-24T18:27:23.334Z,4.70
2018-07-24T18:29:50.587Z,6.40
2018-07-24T18:32:18.320Z,5.40
2018-07-24T18:34:45.453Z,6.62
2018-07-24T18:37:13.569Z,7.93
2018-07-24T18:39:40.737Z,6.10
2018-07-24T18:42:07.920Z,7.27
2018-07-24T18:44:35.145Z,5.90
2018-07-24T18:47:03.257Z,6.17
2018-07-24T18:49:30.354Z,10.47
2018-07-24T18:51:58.557Z,8.78
2018-07-24T18:54:25.609Z,6.63
2018-07-24T18:56:52.976Z,44.67
2018-07-24T18:59:20.777Z,20.63
2018-07-24T19:01:55.921Z,11.63
2018-07-24T19:04:23.127Z,14.17
2018-07-24T19:06:51.221Z,11.73
2018-07-24T19:09:18.302Z,9.90
2018-07-24T19:11:45.502Z,12.20
2018-07-24T19:14:16.532Z,15.60
2018-07-24T19:16:49.971Z,12.63
2018-07-24T19:19:17.846Z,9.73
2018-07-24T19:21:44.935Z,10.40
2018-07-24T19:24:12.120Z,11.13
2018-07-24T19:26:39.493Z,14.07
2018-07-24T19:29:06.670Z,12.43
2018-07-24T19:31:33.805Z,8.00
2018-07-24T19:34:00.940Z,7.57
2018-07-24T19:36:28.688Z,8.25
2018-07-24T19:38:55.888Z,10.40
2018-07-24T19:41:23.836Z,7.80
2018-07-24T19:43:50.959Z,9.03
2018-07-24T19:46:21.200Z,8.93
2018-07-24T19:48:50.278Z,8.43
2018-07-24T19:51:17.380Z,8.85
2018-07-24T19:53:47.975Z,12.60
2018-07-24T19:56:15.114Z,9.70
2018-07-24T19:58:42.349Z,10.23
2018-07-24T20:01:09.944Z,8.70
2018-07-24T20:03:37.285Z,16.10
2018-07-24T20:06:05.288Z,7.77
2018-07-24T20:08:34.220Z,8.57
2018-07-24T20:11:01.457Z,9.65
2018-07-24T20:13:32.352Z,9.77
2018-07-24T20:15:59.619Z,8.83
2018-07-24T20:18:30.575Z,12.40
2018-07-24T20:21:00.721Z,13.37
2018-07-24T20:23:27.870Z,10.13
2018-07-24T20:25:55.828Z,9.20
2018-07-24T20:28:26.876Z,9.80
2018-07-24T20:30:54.213Z,9.80
2018-07-24T20:33:21.591Z,10.80
2018-07-24T20:35:48.729Z,10.10
2018-07-24T20:38:16.951Z,15.90
2018-07-24T20:40:48.151Z,12.10
2018-07-24T20:43:15.927Z,13.47
2018-07-24T20:45:43.000Z,13.90
2018-07-24T20:48:10.809Z,12.25
2018-07-24T20:50:39.878Z,11.55
2018-07-24T20:53:07.048Z,12.80
2018-07-24T20:55:40.319Z,11.80
2018-07-24T20:58:10.785Z,13.37
2018-07-24T21:00:40.899Z,10.47
2018-07-24T21:03:08.017Z,10.30
2018-07-24T21:05:35.153Z,10.30
2018-07-24T21:08:03.313Z,11.20
2018-07-24T21:10:31.391Z,11.10
2018-07-24T21:13:00.417Z,11.47
2018-07-24T21:15:30.557Z,12.73
2018-07-24T21:17:57.585Z,10.90
2018-07-24T21:20:24.659Z,15.47
2018-07-24T21:22:52.434Z,12.07
2018-07-24T21:25:20.335Z,11.27
2018-07-24T21:27:47.375Z,11.40
2018-07-24T21:30:14.528Z,13.70
2018-07-24T21:32:42.302Z,10.30
2018-07-24T21:35:09.469Z,13.33
2018-07-24T21:37:36.504Z,11.40
2018-07-24T21:40:05.386Z,10.73
2018-07-24T21:42:38.843Z,10.93
2018-07-24T21:45:05.825Z,10.20
2018-07-24T21:47:32.881Z,10.70
2018-07-24T21:49:59.951Z,10.83
2018-07-24T21:52:27.079Z,10.53
2018-07-24T21:55:00.271Z,9.80
2018-07-24T21:57:30.324Z,10.75
2018-07-24T21:59:58.463Z,10.73
2018-07-24T22:02:26.332Z,12.33
2018-07-24T22:04:54.500Z,10.10
2018-07-24T22:07:21.568Z,10.40
2018-07-24T22:09:52.431Z,9.57
2018-07-24T22:12:20.424Z,9.90
2018-07-24T22:14:48.318Z,11.05
2018-07-24T22:17:15.387Z,11.27
2018-07-24T22:19:51.376Z,14.40
2018-07-24T22:22:19.363Z,12.60
2018-07-24T22:24:47.382Z,14.00
2018-07-24T22:27:21.620Z,13.87
2018-07-24T22:29:56.326Z,14.83
2018-07-24T22:32:27.816Z,13.07
2018-07-24T22:34:54.943Z,14.07
2018-07-24T22:37:22.945Z,15.30
2018-07-24T22:39:50.718Z,16.70
2018-07-24T22:42:21.326Z,14.77
2018-07-24T22:44:48.507Z,17.15
2018-07-24T22:47:18.365Z,16.37
2018-07-24T22:49:52.523Z,15.50
2018-07-24T22:52:26.041Z,16.53
2018-07-24T22:54:53.129Z,16.50
2018-07-24T22:57:20.167Z,16.50
2018-07-24T22:59:47.245Z,14.57
2018-07-24T23:02:22.527Z,13.90
2018-07-24T23:04:50.359Z,15.53
2018-07-24T23:07:17.475Z,17.10
2018-07-24T23:09:52.432Z,15.27
2018-07-24T23:12:20.738Z,16.23
2018-07-24T23:14:55.283Z,14.40
2018-07-24T23:17:22.408Z,16.20
2018-07-24T23:19:52.303Z,14.20
2018-07-24T23:22:20.422Z,13.70
2018-07-24T23:24:48.560Z,13.47
2018-07-24T23:27:15.676Z,14.90
2018-07-24T23:29:42.744Z,13.17
2018-07-24T23:32:10.362Z,13.70
2018-07-24T23:34:38.451Z,12.80
2018-07-24T23:37:12.009Z,14.10
2018-07-24T23:39:39.133Z,15.60
2018-07-24T23:42:06.207Z,15.87
2018-07-24T23:44:33.290Z,15.93
2018-07-24T23:47:00.374Z,18.53
2018-07-24T23:49:27.576Z,16.20
2018-07-24T23:52:00.911Z,15.20
2018-07-24T23:54:31.417Z,14.60
2018-07-24T23:56:59.422Z,15.77
2018-07-24T23:59:26.458Z,15.60
